sensor_id;sensor_type;location;lat;lon;timestamp;temperature;humidity
19898;DHT22;10111;50.814;4.572;2022-11-20T00:01:26;5.40;99.90
19898;DHT22;10111;50.814;4.572;2022-11-20T00:03:53;5.60;99.90
19898;DHT22;10111;50.814;4.572;2022-11-20T00:06:20;5.60;99.90
19898;DHT22;10111;50.814;4.572;2022-11-20T00:08:46;5.40;99.90
19898;DHT22;10111;50.814;4.572;2022-11-20T00:11:20;5.10;99.90
19898;DHT22;10111;50.814;4.572;2022-11-20T00:13:48;5.10;99.90
19898;DHT22;10111;50.814;4.572;2022-11-20T00:16:16;5.10;99.90
19898;DHT22;10111;50.814;4.572;2022-11-20T00:18:42;5.20;99.90
19898;DHT22;10111;50.814;4.572;2022-11-20T00:21:20;5.30;99.90
19898;DHT22;10111;50.814;4.572;2022-11-20T00:23:46;5.30;99.90
19898;DHT22;10111;50.814;4.572;2022-11-20T00:26:14;5.30;99.90
19898;DHT22;10111;50.814;4.572;2022-11-20T00:28:41;5.10;99.90
19898;DHT22;10111;50.814;4.572;2022-11-20T00:31:13;5.20;99.90
19898;DHT22;10111;50.814;4.572;2022-11-20T00:33:40;5.20;99.90
19898;DHT22;10111;50.814;4.572;2022-11-20T00:36:08;5.10;99.90
19898;DHT22;10111;50.814;4.572;2022-11-20T00:38:35;5.20;99.90
19898;DHT22;10111;50.814;4.572;2022-11-20T00:41:03;5.10;99.90
19898;DHT22;10111;50.814;4.572;2022-11-20T00:43:29;5.20;99.90
19898;DHT22;10111;50.814;4.572;2022-11-20T00:46:06;5.20;99.90
19898;DHT22;10111;50.814;4.572;2022-11-20T00:48:32;5.20;99.90
19898;DHT22;10111;50.814;4.572;2022-11-20T00:50:58;5.30;99.90
19898;DHT22;10111;50.814;4.572;2022-11-20T00:53:24;5.40;99.90
19898;DHT22;10111;50.814;4.572;2022-11-20T00:56:04;5.40;99.90
19898;DHT22;10111;50.814;4.572;2022-11-20T00:58:34;5.30;99.90
19898;DHT22;10111;50.814;4.572;2022-11-20T01:01:25;5.30;99.90
19898;DHT22;10111;50.814;4.572;2022-11-20T01:03:51;5.30;99.90
19898;DHT22;10111;50.814;4.572;2022-11-20T01:06:28;5.40;99.90
19898;DHT22;10111;50.814;4.572;2022-11-20T01:08:57;5.40;99.90
19898;DHT22;10111;50.814;4.572;2022-11-20T01:11:26;5.30;99.90
19898;DHT22;10111;50.814;4.572;2022-11-20T01:13:53;5.30;99.90
19898;DHT22;10111;50.814;4.572;2022-11-20T01:16:28;5.30;99.90
19898;DHT22;10111;50.814;4.572;2022-11-20T01:18:57;5.30;99.90
19898;DHT22;10111;50.814;4.572;2022-11-20T01:21:25;5.40;99.90
19898;DHT22;10111;50.814;4.572;2022-11-20T01:23:51;5.40;99.90
19898;DHT22;10111;50.814;4.572;2022-11-20T01:26:20;5.40;99.90
19898;DHT22;10111;50.814;4.572;2022-11-20T01:28:47;5.40;99.90
19898;DHT22;10111;50.814;4.572;2022-11-20T01:31:20;5.40;99.90
19898;DHT22;10111;50.814;4.572;2022-11-20T01:33:48;5.40;99.90
19898;DHT22;10111;50.814;4.572;2022-11-20T01:36:14;5.40;99.90
19898;DHT22;10111;50.814;4.572;2022-11-20T01:38:40;5.40;99.90
19898;DHT22;10111;50.814;4.572;2022-11-20T01:41:07;5.50;99.90
19898;DHT22;10111;50.814;4.572;2022-11-20T01:43:33;5.60;99.90
19898;DHT22;10111;50.814;4.572;2022-11-20T01:46:14;5.60;99.90
19898;DHT22;10111;50.814;4.572;2022-11-20T01:51:33;5.50;99.90
19898;DHT22;10111;50.814;4.572;2022-11-20T01:54:02;5.60;99.90
19898;DHT22;10111;50.814;4.572;2022-11-20T01:56:30;5.60;99.90
19898;DHT22;10111;50.814;4.572;2022-11-20T01:58:58;5.60;99.90
19898;DHT22;10111;50.814;4.572;2022-11-20T02:01:26;5.60;99.90
19898;DHT22;10111;50.814;4.572;2022-11-20T02:03:52;5.60;99.90
19898;DHT22;10111;50.814;4.572;2022-11-20T02:09:10;5.70;99.90
19898;DHT22;10111;50.814;4.572;2022-11-20T02:11:37;5.80;99.90
19898;DHT22;10111;50.814;4.572;2022-11-20T02:14:02;5.80;99.90
19898;DHT22;10111;50.814;4.572;2022-11-20T02:16:29;5.80;99.90
19898;DHT22;10111;50.814;4.572;2022-11-20T02:19:02;6.00;99.90
19898;DHT22;10111;50.814;4.572;2022-11-20T02:24:18;5.80;99.90
19898;DHT22;10111;50.814;4.572;2022-11-20T02:27:01;5.80;99.90
19898;DHT22;10111;50.814;4.572;2022-11-20T02:32:38;5.80;99.90
19898;DHT22;10111;50.814;4.572;2022-11-20T02:37:43;5.90;99.90
19898;DHT22;10111;50.814;4.572;2022-11-20T02:40:10;5.80;99.90
19898;DHT22;10111;50.814;4.572;2022-11-20T02:42:36;5.80;99.90
19898;DHT22;10111;50.814;4.572;2022-11-20T02:45:06;5.80;99.90
19898;DHT22;10111;50.814;4.572;2022-11-20T02:47:33;6.00;99.90
19898;DHT22;10111;50.814;4.572;2022-11-20T02:49:59;5.90;99.90
19898;DHT22;10111;50.814;4.572;2022-11-20T02:52:25;6.00;99.90
19898;DHT22;10111;50.814;4.572;2022-11-20T02:54:50;6.00;99.90
19898;DHT22;10111;50.814;4.572;2022-11-20T02:57:16;5.90;99.90
19898;DHT22;10111;50.814;4.572;2022-11-20T02:59:42;6.00;99.90
19898;DHT22;10111;50.814;4.572;2022-11-20T03:02:07;6.10;99.90
19898;DHT22;10111;50.814;4.572;2022-11-20T03:04:33;5.90;99.90
19898;DHT22;10111;50.814;4.572;2022-11-20T03:06:58;5.80;99.90
19898;DHT22;10111;50.814;4.572;2022-11-20T03:09:24;5.80;99.90
19898;DHT22;10111;50.814;4.572;2022-11-20T03:11:50;5.90;99.90
19898;DHT22;10111;50.814;4.572;2022-11-20T03:14:15;5.90;99.90
19898;DHT22;10111;50.814;4.572;2022-11-20T03:16:41;5.90;99.90
19898;DHT22;10111;50.814;4.572;2022-11-20T03:19:06;5.90;99.90
19898;DHT22;10111;50.814;4.572;2022-11-20T03:21:35;6.00;99.90
19898;DHT22;10111;50.814;4.572;2022-11-20T03:24:01;5.90;99.90
19898;DHT22;10111;50.814;4.572;2022-11-20T03:26:27;5.80;99.90
19898;DHT22;10111;50.814;4.572;2022-11-20T03:29:01;6.00;99.90
19898;DHT22;10111;50.814;4.572;2022-11-20T03:31:30;6.00;99.90
19898;DHT22;10111;50.814;4.572;2022-11-20T03:33:57;5.90;99.90
19898;DHT22;10111;50.814;4.572;2022-11-20T03:36:23;5.90;99.90
19898;DHT22;10111;50.814;4.572;2022-11-20T03:38:49;5.90;99.90
19898;DHT22;10111;50.814;4.572;2022-11-20T03:41:18;6.00;99.90
19898;DHT22;10111;50.814;4.572;2022-11-20T03:44:05;6.00;99.90
19898;DHT22;10111;50.814;4.572;2022-11-20T03:46:31;6.00;99.90
19898;DHT22;10111;50.814;4.572;2022-11-20T03:48:57;6.10;99.90
19898;DHT22;10111;50.814;4.572;2022-11-20T03:51:25;6.10;99.90
19898;DHT22;10111;50.814;4.572;2022-11-20T03:53:53;6.00;99.90
19898;DHT22;10111;50.814;4.572;2022-11-20T03:56:24;6.00;99.90
19898;DHT22;10111;50.814;4.572;2022-11-20T03:58:50;6.00;99.90
19898;DHT22;10111;50.814;4.572;2022-11-20T04:01:21;6.10;99.90
19898;DHT22;10111;50.814;4.572;2022-11-20T04:03:47;6.10;99.90
19898;DHT22;10111;50.814;4.572;2022-11-20T04:06:25;6.00;99.90
19898;DHT22;10111;50.814;4.572;2022-11-20T04:08:53;6.10;99.90
19898;DHT22;10111;50.814;4.572;2022-11-20T04:11:28;5.90;99.90
19898;DHT22;10111;50.814;4.572;2022-11-20T04:13:56;6.00;99.90
19898;DHT22;10111;50.814;4.572;2022-11-20T04:16:24;6.10;99.90
19898;DHT22;10111;50.814;4.572;2022-11-20T04:18:55;6.00;99.90
19898;DHT22;10111;50.814;4.572;2022-11-20T04:21:21;6.00;99.90
19898;DHT22;10111;50.814;4.572;2022-11-20T04:23:46;6.00;99.90
19898;DHT22;10111;50.814;4.572;2022-11-20T04:26:12;6.00;99.90
19898;DHT22;10111;50.814;4.572;2022-11-20T04:28:38;6.10;99.90
19898;DHT22;10111;50.814;4.572;2022-11-20T04:31:12;6.10;99.90
19898;DHT22;10111;50.814;4.572;2022-11-20T04:33:39;5.90;99.90
19898;DHT22;10111;50.814;4.572;2022-11-20T04:36:16;6.10;99.90
19898;DHT22;10111;50.814;4.572;2022-11-20T04:38:42;6.10;99.90
19898;DHT22;10111;50.814;4.572;2022-11-20T04:41:15;6.00;99.90
19898;DHT22;10111;50.814;4.572;2022-11-20T04:43:41;6.00;99.90
19898;DHT22;10111;50.814;4.572;2022-11-20T04:46:06;6.00;99.90
19898;DHT22;10111;50.814;4.572;2022-11-20T04:48:32;6.00;99.90
19898;DHT22;10111;50.814;4.572;2022-11-20T04:50:57;6.00;99.90
19898;DHT22;10111;50.814;4.572;2022-11-20T04:53:27;6.00;99.90
19898;DHT22;10111;50.814;4.572;2022-11-20T04:55:59;6.10;99.90
19898;DHT22;10111;50.814;4.572;2022-11-20T04:58:25;6.20;99.90
19898;DHT22;10111;50.814;4.572;2022-11-20T05:00:51;6.30;99.90
19898;DHT22;10111;50.814;4.572;2022-11-20T05:03:17;6.20;99.90
19898;DHT22;10111;50.814;4.572;2022-11-20T05:05:42;6.20;99.90
19898;DHT22;10111;50.814;4.572;2022-11-20T05:08:08;6.20;99.90
19898;DHT22;10111;50.814;4.572;2022-11-20T05:10:34;6.20;99.90
19898;DHT22;10111;50.814;4.572;2022-11-20T05:12:59;6.20;99.90
19898;DHT22;10111;50.814;4.572;2022-11-20T05:15:25;6.20;99.90
19898;DHT22;10111;50.814;4.572;2022-11-20T05:17:51;6.20;99.90
19898;DHT22;10111;50.814;4.572;2022-11-20T05:20:18;6.20;99.90
19898;DHT22;10111;50.814;4.572;2022-11-20T05:22:44;6.30;99.90
19898;DHT22;10111;50.814;4.572;2022-11-20T05:25:10;6.30;99.90
19898;DHT22;10111;50.814;4.572;2022-11-20T05:27:36;6.20;99.90
19898;DHT22;10111;50.814;4.572;2022-11-20T05:30:03;6.20;99.90
19898;DHT22;10111;50.814;4.572;2022-11-20T05:32:29;6.20;99.90
19898;DHT22;10111;50.814;4.572;2022-11-20T05:34:54;6.30;99.90
19898;DHT22;10111;50.814;4.572;2022-11-20T05:37:20;6.40;99.90
19898;DHT22;10111;50.814;4.572;2022-11-20T05:39:45;6.20;99.90
19898;DHT22;10111;50.814;4.572;2022-11-20T05:42:11;6.20;99.90
19898;DHT22;10111;50.814;4.572;2022-11-20T05:44:59;6.20;99.90
19898;DHT22;10111;50.814;4.572;2022-11-20T05:47:26;6.30;99.90
19898;DHT22;10111;50.814;4.572;2022-11-20T05:49:52;6.30;99.90
19898;DHT22;10111;50.814;4.572;2022-11-20T05:52:17;6.30;99.90
19898;DHT22;10111;50.814;4.572;2022-11-20T05:54:43;6.40;99.90
19898;DHT22;10111;50.814;4.572;2022-11-20T05:57:08;6.40;99.90
19898;DHT22;10111;50.814;4.572;2022-11-20T05:59:34;6.40;99.90
19898;DHT22;10111;50.814;4.572;2022-11-20T06:02:00;6.60;99.90
19898;DHT22;10111;50.814;4.572;2022-11-20T06:04:25;6.40;99.90
19898;DHT22;10111;50.814;4.572;2022-11-20T06:06:51;6.40;99.90
19898;DHT22;10111;50.814;4.572;2022-11-20T06:09:16;6.40;99.90
19898;DHT22;10111;50.814;4.572;2022-11-20T06:11:42;6.50;99.90
19898;DHT22;10111;50.814;4.572;2022-11-20T06:14:08;6.50;99.90
19898;DHT22;10111;50.814;4.572;2022-11-20T06:16:33;6.40;99.90
19898;DHT22;10111;50.814;4.572;2022-11-20T06:18:59;6.60;99.90
19898;DHT22;10111;50.814;4.572;2022-11-20T06:21:24;6.40;99.90
19898;DHT22;10111;50.814;4.572;2022-11-20T06:23:52;6.40;99.90
19898;DHT22;10111;50.814;4.572;2022-11-20T06:26:23;6.40;99.90
19898;DHT22;10111;50.814;4.572;2022-11-20T06:28:49;6.70;99.90
19898;DHT22;10111;50.814;4.572;2022-11-20T06:31:17;6.60;99.90
19898;DHT22;10111;50.814;4.572;2022-11-20T06:33:44;6.50;99.90
19898;DHT22;10111;50.814;4.572;2022-11-20T06:36:11;6.60;99.90
19898;DHT22;10111;50.814;4.572;2022-11-20T06:38:38;6.40;99.90
19898;DHT22;10111;50.814;4.572;2022-11-20T06:41:05;6.40;99.90
19898;DHT22;10111;50.814;4.572;2022-11-20T06:43:31;6.50;99.90
19898;DHT22;10111;50.814;4.572;2022-11-20T06:45:58;6.50;99.90
19898;DHT22;10111;50.814;4.572;2022-11-20T06:48:25;6.50;99.90
19898;DHT22;10111;50.814;4.572;2022-11-20T06:50:51;6.50;99.90
19898;DHT22;10111;50.814;4.572;2022-11-20T06:53:17;6.50;99.90
19898;DHT22;10111;50.814;4.572;2022-11-20T06:55:47;6.60;99.90
19898;DHT22;10111;50.814;4.572;2022-11-20T06:58:14;6.60;99.90
19898;DHT22;10111;50.814;4.572;2022-11-20T07:00:40;6.60;99.90
19898;DHT22;10111;50.814;4.572;2022-11-20T07:03:08;6.60;99.90
19898;DHT22;10111;50.814;4.572;2022-11-20T07:05:35;6.60;99.90
19898;DHT22;10111;50.814;4.572;2022-11-20T07:08:01;6.60;99.90
19898;DHT22;10111;50.814;4.572;2022-11-20T07:10:27;6.70;99.90
19898;DHT22;10111;50.814;4.572;2022-11-20T07:12:53;6.70;99.90
19898;DHT22;10111;50.814;4.572;2022-11-20T07:15:20;6.80;99.90
19898;DHT22;10111;50.814;4.572;2022-11-20T07:17:46;6.90;99.90
19898;DHT22;10111;50.814;4.572;2022-11-20T07:20:13;6.70;99.90
19898;DHT22;10111;50.814;4.572;2022-11-20T07:22:39;6.70;99.90
19898;DHT22;10111;50.814;4.572;2022-11-20T07:25:05;6.80;99.90
19898;DHT22;10111;50.814;4.572;2022-11-20T07:27:30;6.70;99.90
19898;DHT22;10111;50.814;4.572;2022-11-20T07:29:56;6.70;99.90
19898;DHT22;10111;50.814;4.572;2022-11-20T07:32:22;6.70;99.90
19898;DHT22;10111;50.814;4.572;2022-11-20T07:34:47;6.80;99.90
19898;DHT22;10111;50.814;4.572;2022-11-20T07:37:14;6.80;99.90
19898;DHT22;10111;50.814;4.572;2022-11-20T07:39:39;6.80;99.90
19898;DHT22;10111;50.814;4.572;2022-11-20T07:42:06;6.80;99.90
19898;DHT22;10111;50.814;4.572;2022-11-20T07:44:32;6.90;99.90
19898;DHT22;10111;50.814;4.572;2022-11-20T07:46:58;6.90;99.90
19898;DHT22;10111;50.814;4.572;2022-11-20T07:49:23;7.10;99.90
19898;DHT22;10111;50.814;4.572;2022-11-20T07:51:52;7.00;99.90
19898;DHT22;10111;50.814;4.572;2022-11-20T07:54:19;7.00;99.90
19898;DHT22;10111;50.814;4.572;2022-11-20T07:56:45;7.00;99.90
19898;DHT22;10111;50.814;4.572;2022-11-20T07:59:11;7.00;99.90
19898;DHT22;10111;50.814;4.572;2022-11-20T08:01:38;7.00;99.90
19898;DHT22;10111;50.814;4.572;2022-11-20T08:04:04;7.20;99.90
19898;DHT22;10111;50.814;4.572;2022-11-20T08:06:29;7.20;99.90
19898;DHT22;10111;50.814;4.572;2022-11-20T08:08:55;7.20;99.90
19898;DHT22;10111;50.814;4.572;2022-11-20T08:11:21;7.10;99.90
19898;DHT22;10111;50.814;4.572;2022-11-20T08:14:04;7.40;99.90
19898;DHT22;10111;50.814;4.572;2022-11-20T08:16:47;7.20;99.90
19898;DHT22;10111;50.814;4.572;2022-11-20T08:19:14;7.10;99.90
19898;DHT22;10111;50.814;4.572;2022-11-20T08:21:40;7.10;99.90
19898;DHT22;10111;50.814;4.572;2022-11-20T08:24:07;7.30;99.90
19898;DHT22;10111;50.814;4.572;2022-11-20T08:26:33;7.20;99.90
19898;DHT22;10111;50.814;4.572;2022-11-20T08:28:59;7.30;99.90
19898;DHT22;10111;50.814;4.572;2022-11-20T08:31:26;7.30;99.90
19898;DHT22;10111;50.814;4.572;2022-11-20T08:33:53;7.50;99.90
19898;DHT22;10111;50.814;4.572;2022-11-20T08:36:20;7.40;99.90
19898;DHT22;10111;50.814;4.572;2022-11-20T08:38:50;7.40;99.90
19898;DHT22;10111;50.814;4.572;2022-11-20T08:41:16;7.50;99.90
19898;DHT22;10111;50.814;4.572;2022-11-20T08:44:01;7.50;99.90
19898;DHT22;10111;50.814;4.572;2022-11-20T08:46:41;7.60;99.90
19898;DHT22;10111;50.814;4.572;2022-11-20T08:49:11;7.60;99.90
19898;DHT22;10111;50.814;4.572;2022-11-20T08:51:38;7.70;99.90
19898;DHT22;10111;50.814;4.572;2022-11-20T08:54:04;7.70;99.90
19898;DHT22;10111;50.814;4.572;2022-11-20T08:56:31;7.80;99.90
19898;DHT22;10111;50.814;4.572;2022-11-20T08:58:56;7.90;99.90
19898;DHT22;10111;50.814;4.572;2022-11-20T09:01:24;7.80;99.90
19898;DHT22;10111;50.814;4.572;2022-11-20T09:03:50;7.80;99.90
19898;DHT22;10111;50.814;4.572;2022-11-20T09:06:16;7.90;99.90
19898;DHT22;10111;50.814;4.572;2022-11-20T09:08:42;7.90;99.90
19898;DHT22;10111;50.814;4.572;2022-11-20T09:11:07;7.90;99.90
19898;DHT22;10111;50.814;4.572;2022-11-20T09:13:34;7.90;99.90
19898;DHT22;10111;50.814;4.572;2022-11-20T09:16:06;7.90;99.90
19898;DHT22;10111;50.814;4.572;2022-11-20T09:18:33;8.00;99.90
19898;DHT22;10111;50.814;4.572;2022-11-20T09:21:03;8.10;99.90
19898;DHT22;10111;50.814;4.572;2022-11-20T09:23:34;8.10;99.90
19898;DHT22;10111;50.814;4.572;2022-11-20T09:26:04;8.30;99.90
19898;DHT22;10111;50.814;4.572;2022-11-20T09:28:30;8.10;99.90
19898;DHT22;10111;50.814;4.572;2022-11-20T09:30:56;8.20;99.90
19898;DHT22;10111;50.814;4.572;2022-11-20T09:33:22;8.20;99.90
19898;DHT22;10111;50.814;4.572;2022-11-20T09:35:48;8.30;99.90
19898;DHT22;10111;50.814;4.572;2022-11-20T09:38:13;8.30;99.90
19898;DHT22;10111;50.814;4.572;2022-11-20T09:40:58;8.40;99.90
19898;DHT22;10111;50.814;4.572;2022-11-20T09:43:41;8.40;99.90
19898;DHT22;10111;50.814;4.572;2022-11-20T09:46:14;8.60;99.90
19898;DHT22;10111;50.814;4.572;2022-11-20T09:49:05;8.50;99.90
19898;DHT22;10111;50.814;4.572;2022-11-20T09:56:41;8.60;99.90
19898;DHT22;10111;50.814;4.572;2022-11-20T09:59:15;8.60;99.90
19898;DHT22;10111;50.814;4.572;2022-11-20T10:01:45;8.70;99.90
19898;DHT22;10111;50.814;4.572;2022-11-20T10:04:17;8.70;99.90
19898;DHT22;10111;50.814;4.572;2022-11-20T10:09:35;8.80;99.90
19898;DHT22;10111;50.814;4.572;2022-11-20T10:12:24;8.90;99.90
19898;DHT22;10111;50.814;4.572;2022-11-20T10:18:13;8.90;99.90
19898;DHT22;10111;50.814;4.572;2022-11-20T10:23:43;9.10;99.90
19898;DHT22;10111;50.814;4.572;2022-11-20T10:26:31;9.10;99.90
19898;DHT22;10111;50.814;4.572;2022-11-20T10:29:15;9.20;99.90
19898;DHT22;10111;50.814;4.572;2022-11-20T10:31:55;9.20;99.90
19898;DHT22;10111;50.814;4.572;2022-11-20T10:35:15;9.30;99.90
19898;DHT22;10111;50.814;4.572;2022-11-20T10:37:25;9.30;99.90
19898;DHT22;10111;50.814;4.572;2022-11-20T10:42:42;9.60;99.90
19898;DHT22;10111;50.814;4.572;2022-11-20T10:47:45;9.60;99.90
19898;DHT22;10111;50.814;4.572;2022-11-20T10:50:16;9.60;99.90
19898;DHT22;10111;50.814;4.572;2022-11-20T10:53:00;9.70;99.90
19898;DHT22;10111;50.814;4.572;2022-11-20T10:55:45;9.80;99.90
19898;DHT22;10111;50.814;4.572;2022-11-20T11:01:18;9.90;99.90
19898;DHT22;10111;50.814;4.572;2022-11-20T11:03:44;10.00;99.90
19898;DHT22;10111;50.814;4.572;2022-11-20T11:06:22;10.00;99.90
19898;DHT22;10111;50.814;4.572;2022-11-20T11:08:51;10.00;99.90
19898;DHT22;10111;50.814;4.572;2022-11-20T11:11:25;10.10;99.90
19898;DHT22;10111;50.814;4.572;2022-11-20T11:13:51;10.20;99.90
19898;DHT22;10111;50.814;4.572;2022-11-20T11:16:22;10.30;99.90
19898;DHT22;10111;50.814;4.572;2022-11-20T11:18:48;10.20;99.90
19898;DHT22;10111;50.814;4.572;2022-11-20T11:21:23;10.20;99.90
19898;DHT22;10111;50.814;4.572;2022-11-20T11:24:01;10.20;99.90
19898;DHT22;10111;50.814;4.572;2022-11-20T11:26:27;10.20;99.90
19898;DHT22;10111;50.814;4.572;2022-11-20T11:29:01;10.30;99.90
19898;DHT22;10111;50.814;4.572;2022-11-20T11:31:33;10.30;99.90
19898;DHT22;10111;50.814;4.572;2022-11-20T11:34:12;10.40;99.90
19898;DHT22;10111;50.814;4.572;2022-11-20T11:36:38;10.40;99.90
19898;DHT22;10111;50.814;4.572;2022-11-20T11:39:06;10.40;99.90
19898;DHT22;10111;50.814;4.572;2022-11-20T11:41:35;10.40;99.90
19898;DHT22;10111;50.814;4.572;2022-11-20T11:44:24;10.40;99.90
19898;DHT22;10111;50.814;4.572;2022-11-20T11:47:46;10.50;99.90
19898;DHT22;10111;50.814;4.572;2022-11-20T11:55:37;10.50;99.90
19898;DHT22;10111;50.814;4.572;2022-11-20T11:58:20;10.40;99.90
19898;DHT22;10111;50.814;4.572;2022-11-20T12:01:07;10.40;99.90
19898;DHT22;10111;50.814;4.572;2022-11-20T12:03:38;10.30;99.90
19898;DHT22;10111;50.814;4.572;2022-11-20T12:06:24;10.30;99.90
19898;DHT22;10111;50.814;4.572;2022-11-20T12:09:03;10.30;99.90
19898;DHT22;10111;50.814;4.572;2022-11-20T12:14:09;10.30;99.90
19898;DHT22;10111;50.814;4.572;2022-11-20T12:16:37;10.20;99.90
19898;DHT22;10111;50.814;4.572;2022-11-20T12:19:11;10.30;99.90
19898;DHT22;10111;50.814;4.572;2022-11-20T12:30:10;10.00;99.90
19898;DHT22;10111;50.814;4.572;2022-11-20T12:47:55;9.80;99.90
19898;DHT22;10111;50.814;4.572;2022-11-20T12:56:53;9.70;99.90
19898;DHT22;10111;50.814;4.572;2022-11-20T13:07:55;9.70;99.90
19898;DHT22;10111;50.814;4.572;2022-11-20T13:10:37;9.90;99.90
19898;DHT22;10111;50.814;4.572;2022-11-20T13:13:24;9.70;99.90
19898;DHT22;10111;50.814;4.572;2022-11-20T13:18:23;9.70;99.90
19898;DHT22;10111;50.814;4.572;2022-11-20T13:20:49;9.80;99.90
19898;DHT22;10111;50.814;4.572;2022-11-20T13:23:26;9.80;99.90
19898;DHT22;10111;50.814;4.572;2022-11-20T13:26:19;9.90;99.90
19898;DHT22;10111;50.814;4.572;2022-11-20T13:28:47;9.90;99.90
19898;DHT22;10111;50.814;4.572;2022-11-20T13:31:34;9.80;99.90
19898;DHT22;10111;50.814;4.572;2022-11-20T13:34:03;9.80;99.90
19898;DHT22;10111;50.814;4.572;2022-11-20T13:36:30;10.00;99.90
19898;DHT22;10111;50.814;4.572;2022-11-20T13:38:57;9.80;99.90
19898;DHT22;10111;50.814;4.572;2022-11-20T13:41:29;9.80;99.90
19898;DHT22;10111;50.814;4.572;2022-11-20T13:47:21;9.70;99.90
19898;DHT22;10111;50.814;4.572;2022-11-20T13:49:48;9.70;99.90
19898;DHT22;10111;50.814;4.572;2022-11-20T13:55:12;9.60;99.90
19898;DHT22;10111;50.814;4.572;2022-11-20T14:00:17;9.70;99.90
19898;DHT22;10111;50.814;4.572;2022-11-20T14:02:44;9.70;99.90
19898;DHT22;10111;50.814;4.572;2022-11-20T14:05:21;9.90;99.90
19898;DHT22;10111;50.814;4.572;2022-11-20T14:07:49;9.70;99.90
19898;DHT22;10111;50.814;4.572;2022-11-20T14:10:23;9.70;99.90
19898;DHT22;10111;50.814;4.572;2022-11-20T14:12:49;9.90;99.90
19898;DHT22;10111;50.814;4.572;2022-11-20T14:15:30;9.90;99.90
19898;DHT22;10111;50.814;4.572;2022-11-20T14:17:57;10.00;99.90
19898;DHT22;10111;50.814;4.572;2022-11-20T14:20:27;9.90;99.90
19898;DHT22;10111;50.814;4.572;2022-11-20T14:22:55;10.00;99.90
19898;DHT22;10111;50.814;4.572;2022-11-20T14:25:23;10.00;99.90
19898;DHT22;10111;50.814;4.572;2022-11-20T14:27:54;10.10;99.90
19898;DHT22;10111;50.814;4.572;2022-11-20T14:30:26;10.00;99.90
19898;DHT22;10111;50.814;4.572;2022-11-20T14:32:54;9.90;99.90
19898;DHT22;10111;50.814;4.572;2022-11-20T14:35:26;9.90;99.90
19898;DHT22;10111;50.814;4.572;2022-11-20T14:37:52;10.10;99.90
19898;DHT22;10111;50.814;4.572;2022-11-20T14:40:35;10.20;99.90
19898;DHT22;10111;50.814;4.572;2022-11-20T14:43:02;10.10;99.90
19898;DHT22;10111;50.814;4.572;2022-11-20T14:45:30;10.00;99.90
19898;DHT22;10111;50.814;4.572;2022-11-20T14:47:58;10.00;99.90
19898;DHT22;10111;50.814;4.572;2022-11-20T14:50:27;10.10;99.90
19898;DHT22;10111;50.814;4.572;2022-11-20T14:52:58;10.00;99.90
19898;DHT22;10111;50.814;4.572;2022-11-20T14:55:38;10.10;99.90
19898;DHT22;10111;50.814;4.572;2022-11-20T14:58:26;10.10;99.90
19898;DHT22;10111;50.814;4.572;2022-11-20T15:01:06;10.00;99.90
19898;DHT22;10111;50.814;4.572;2022-11-20T15:03:37;10.00;99.90
19898;DHT22;10111;50.814;4.572;2022-11-20T15:06:05;9.90;99.90
19898;DHT22;10111;50.814;4.572;2022-11-20T15:08:31;10.00;99.90
19898;DHT22;10111;50.814;4.572;2022-11-20T15:10:57;10.00;99.90
19898;DHT22;10111;50.814;4.572;2022-11-20T15:13:37;9.90;99.90
19898;DHT22;10111;50.814;4.572;2022-11-20T15:16:04;10.00;99.90
19898;DHT22;10111;50.814;4.572;2022-11-20T15:18:39;9.90;99.90
19898;DHT22;10111;50.814;4.572;2022-11-20T15:21:18;10.00;99.90
19898;DHT22;10111;50.814;4.572;2022-11-20T15:23:44;9.90;99.90
19898;DHT22;10111;50.814;4.572;2022-11-20T15:26:11;9.80;99.90
19898;DHT22;10111;50.814;4.572;2022-11-20T15:28:45;9.80;99.90
19898;DHT22;10111;50.814;4.572;2022-11-20T15:31:14;9.80;99.90
19898;DHT22;10111;50.814;4.572;2022-11-20T15:33:40;9.70;99.90
19898;DHT22;10111;50.814;4.572;2022-11-20T15:36:06;9.70;99.90
19898;DHT22;10111;50.814;4.572;2022-11-20T15:38:32;9.80;99.90
19898;DHT22;10111;50.814;4.572;2022-11-20T15:40:57;9.90;99.90
19898;DHT22;10111;50.814;4.572;2022-11-20T15:43:23;9.80;99.90
19898;DHT22;10111;50.814;4.572;2022-11-20T15:46:17;9.80;99.90
19898;DHT22;10111;50.814;4.572;2022-11-20T15:48:46;9.80;99.90
19898;DHT22;10111;50.814;4.572;2022-11-20T15:51:24;9.60;99.90
19898;DHT22;10111;50.814;4.572;2022-11-20T15:53:51;9.60;99.90
19898;DHT22;10111;50.814;4.572;2022-11-20T15:56:17;9.70;99.90
19898;DHT22;10111;50.814;4.572;2022-11-20T15:58:42;9.90;99.90
19898;DHT22;10111;50.814;4.572;2022-11-20T16:01:13;9.70;99.90
19898;DHT22;10111;50.814;4.572;2022-11-20T16:03:39;9.80;99.90
19898;DHT22;10111;50.814;4.572;2022-11-20T16:06:05;9.80;99.90
19898;DHT22;10111;50.814;4.572;2022-11-20T16:08:31;9.90;99.90
19898;DHT22;10111;50.814;4.572;2022-11-20T16:10:57;9.80;99.90
19898;DHT22;10111;50.814;4.572;2022-11-20T16:13:22;9.70;99.90
19898;DHT22;10111;50.814;4.572;2022-11-20T16:16:20;9.70;99.90
19898;DHT22;10111;50.814;4.572;2022-11-20T16:18:46;9.60;99.90
19898;DHT22;10111;50.814;4.572;2022-11-20T16:21:12;9.60;99.90
19898;DHT22;10111;50.814;4.572;2022-11-20T16:23:41;9.80;99.90
19898;DHT22;10111;50.814;4.572;2022-11-20T16:26:17;9.80;99.90
19898;DHT22;10111;50.814;4.572;2022-11-20T16:28:44;9.90;99.90
19898;DHT22;10111;50.814;4.572;2022-11-20T16:31:15;9.70;99.90
19898;DHT22;10111;50.814;4.572;2022-11-20T16:33:41;9.80;99.90
19898;DHT22;10111;50.814;4.572;2022-11-20T16:38:34;9.80;99.90
19898;DHT22;10111;50.814;4.572;2022-11-20T16:41:03;9.70;99.90
19898;DHT22;10111;50.814;4.572;2022-11-20T16:43:29;9.60;99.90
19898;DHT22;10111;50.814;4.572;2022-11-20T16:45:55;9.60;99.90
19898;DHT22;10111;50.814;4.572;2022-11-20T16:48:20;9.60;99.90
19898;DHT22;10111;50.814;4.572;2022-11-20T16:50:51;9.60;99.90
19898;DHT22;10111;50.814;4.572;2022-11-20T16:53:18;9.60;99.90
19898;DHT22;10111;50.814;4.572;2022-11-20T16:55:44;9.70;99.90
19898;DHT22;10111;50.814;4.572;2022-11-20T16:58:10;9.70;99.90
19898;DHT22;10111;50.814;4.572;2022-11-20T17:00:40;10.00;99.90
19898;DHT22;10111;50.814;4.572;2022-11-20T17:03:06;9.60;99.90
19898;DHT22;10111;50.814;4.572;2022-11-20T17:05:32;9.70;99.90
19898;DHT22;10111;50.814;4.572;2022-11-20T17:07:59;9.70;99.90
19898;DHT22;10111;50.814;4.572;2022-11-20T17:10:24;9.50;99.90
19898;DHT22;10111;50.814;4.572;2022-11-20T17:12:50;9.50;99.90
19898;DHT22;10111;50.814;4.572;2022-11-20T17:15:16;9.50;99.90
19898;DHT22;10111;50.814;4.572;2022-11-20T17:17:41;9.50;99.90
19898;DHT22;10111;50.814;4.572;2022-11-20T17:20:07;9.50;99.90
19898;DHT22;10111;50.814;4.572;2022-11-20T17:22:33;9.60;99.90
19898;DHT22;10111;50.814;4.572;2022-11-20T17:24:59;9.80;99.90
19898;DHT22;10111;50.814;4.572;2022-11-20T17:27:24;10.10;99.90
19898;DHT22;10111;50.814;4.572;2022-11-20T17:29:51;10.00;99.90
19898;DHT22;10111;50.814;4.572;2022-11-20T17:32:19;10.00;99.90
19898;DHT22;10111;50.814;4.572;2022-11-20T17:34:45;9.80;99.90
19898;DHT22;10111;50.814;4.572;2022-11-20T17:37:10;10.00;99.90